CheckWX is a tool to help pilots better visualize weather data.  It is not intended as a substitute for an official pre-flight weather briefing.

03:49:34 UTC

KRKD METAR
Knox County Regional Airport
Rockland, Maine, USA
Current

2 hours ago

KRKD 260156Z AUTO 21005KT 10SM OVC100 11/08 A3006 RMK AO2 SLP180 T01060078
Observed
May-26 @ 01:56 UTC
Wind
  • 210° at 5 KTS
Visibility
10 SM
Flight Rules
VFR
Cloud Levels
  • Overcast at 10,000' AGL
Temperature
11°C / 52°F
Dewpoint
C / 46°F
Humidity
82%
Altimeter
30.06" Hg
Pressure
1017.92 hPa
Previous

3 hours ago

KRKD 260056Z AUTO 20005KT 10SM CLR 11/08 A3006 RMK AO2 SLP180 T01110078
Observed
May-26 @ 00:56 UTC
Wind
  • 200° at 5 KTS
Visibility
10 SM
Flight Rules
VFR
Cloud Levels
  • Clear skies
Temperature
11°C / 52°F
Dewpoint
C / 46°F
Humidity
82%
Altimeter
30.06" Hg
Pressure
1017.92 hPa
Previous

4 hours ago

KRKD 252356Z AUTO 21006KT 10SM CLR 12/07 A3007 RMK AO2 SLP185 T01170072 10183 20117 58012
Observed
May-25 @ 23:56 UTC
Wind
  • 210° at 6 KTS
Visibility
10 SM
Flight Rules
VFR
Cloud Levels
  • Clear skies
Temperature
12°C / 54°F
Dewpoint
C / 45°F
Humidity
72%
Altimeter
30.07" Hg
Pressure
1018.32 hPa